Shishmaref, AK

4:31 PM AKDT on September 19, 2017 (GMT -0800)
New Shishmaref

Weather History for PASH - April, 2014

Change the Weather History Date:

Friday, April 18, 2014

  Actual Average Record
Temperature  
Mean Temperature 16 °F -  
Max Temperature 26 °F 18 °F 33 °F (2008)
Min Temperature 6 °F 5 °F -16 °F (2002)
Degree Days  
Heating Degree Days 49    
Moisture  
Dew Point 15 °F    
Average Humidity 87    
Maximum Humidity 100    
Minimum Humidity 74    
Precipitation  
Precipitation 0.00 in - - ()
Sea Level Pressure  
Sea Level Pressure 29.63 in    
Wind  
Wind Speed 6 mph (North)    
Max Wind Speed 8 mph    
Max Gust Speed -    
Visibility 10 miles    
Events      
Averages and records for this station are not official NWS values.
T = Trace of Precipitation, MM = Missing Value Source: NWS Daily Summary

Daily Weather History Graph

Daily Weather History Graph

Search for Another Location

Airport or City:

Trip Planner

Search our weather history database for the weather conditions in past years. The results will help you decide how hot, cold, wet, or windy it might be!

Date:

Astronomy

Apr. 18, 2014 Rise Set
Actual Time 7:09 AM AKDT 10:59 PM AKDT
Civil Twilight 6:04 AM AKDT 12:05 AM AKDT
Nautical Twilight 4:05 AM AKDT 2:14 AM AKDT
Astronomical Twilight Sun does not set Sun does not set
Moon 3:01 AM AKDT (4/18) 8:35 AM AKDT (4/18)
Length of Visible Light 18h 00m
Length of Day
15h 49m
Waning Gibbous, 86% of the Moon is Illuminated
Apr 18
Waning Gibbous
Apr 21
Last Quarter
Apr 28
New
May 6
First Quarter
May 14
Full

Hourly Weather History & Observations

Time (AKDT) Temp. Windchill Dew Point Humidity Pressure Visibility Wind Dir Wind Speed Gust Speed Precip Events Conditions
12:16 AM 15.8 °F 6.1 °F 12.2 °F 86% 29.61 in 10.0 mi North 6.9 mph - N/A   Clear
12:36 AM 15.8 °F 7.2 °F 12.2 °F 86% 29.61 in 10.0 mi North 5.8 mph - N/A   Clear
12:56 AM 14.0 °F 5.1 °F 12.2 °F 93% 29.61 in 10.0 mi North 5.8 mph - N/A   Clear
1:16 AM 14.0 °F 5.1 °F 12.2 °F 93% 29.61 in 10.0 mi North 5.8 mph - N/A   Clear
1:36 AM 14.0 °F 5.1 °F 12.2 °F 93% 29.61 in 10.0 mi North 5.8 mph - N/A   Clear
1:56 AM 12.2 °F 2.9 °F 10.4 °F 92% 29.61 in 10.0 mi North 5.8 mph - N/A   Clear
2:16 AM 12.2 °F 2.9 °F 10.4 °F 92% 29.60 in 10.0 mi North 5.8 mph - N/A   Clear
2:36 AM 12.2 °F 1.7 °F 8.6 °F 85% 29.60 in 10.0 mi North 6.9 mph - N/A   Clear
2:56 AM 12.2 °F 2.9 °F 8.6 °F 85% 29.60 in 10.0 mi North 5.8 mph - N/A   Clear
3:16 AM 12.2 °F 2.9 °F 8.6 °F 85% 29.60 in 10.0 mi North 5.8 mph - N/A   Clear
3:36 AM 12.2 °F 2.9 °F 8.6 °F 85% 29.60 in 10.0 mi North 5.8 mph - N/A   Clear
3:56 AM 10.4 °F 2.2 °F 8.6 °F 92% 29.60 in 10.0 mi NNW 4.6 mph - N/A   Clear
4:16 AM 10.4 °F 0.8 °F 8.6 °F 92% 29.60 in 10.0 mi North 5.8 mph - N/A   Clear
4:36 AM 10.4 °F 0.8 °F 8.6 °F 92% 29.59 in 10.0 mi North 5.8 mph - N/A   Clear
4:56 AM 10.4 °F -0.4 °F 6.8 °F 85% 29.59 in 10.0 mi North 6.9 mph - N/A   Clear
5:16 AM 10.4 °F 2.2 °F 6.8 °F 85% 29.59 in 10.0 mi North 4.6 mph - N/A   Clear
5:36 AM 10.4 °F 2.2 °F 10.4 °F 100% 29.59 in 10.0 mi NNW 4.6 mph - N/A   Clear
5:56 AM 10.4 °F 4.0 °F 10.4 °F 100% 29.59 in 10.0 mi NNW 3.5 mph - N/A   Clear
6:16 AM 10.4 °F 2.2 °F 8.6 °F 92% 29.59 in 10.0 mi North 4.6 mph - N/A   Clear
6:36 AM 10.4 °F 2.2 °F 8.6 °F 92% 29.60 in 10.0 mi North 4.6 mph - N/A   Clear
6:56 AM 8.6 °F -1.3 °F 6.8 °F 92% 29.60 in 10.0 mi North 5.8 mph - N/A   Clear
7:16 AM 8.6 °F -1.3 °F 6.8 °F 92% 29.60 in 10.0 mi North 5.8 mph - N/A   Clear
7:36 AM 8.6 °F -1.3 °F 6.8 °F 92% 29.60 in 10.0 mi North 5.8 mph - N/A   Clear
7:56 AM 6.8 °F -2.0 °F 3.2 °F 85% 29.60 in 10.0 mi NNE 4.6 mph - N/A   Clear
8:16 AM 8.6 °F -1.3 °F 6.8 °F 92% 29.60 in 10.0 mi NNE 5.8 mph - N/A   Clear
8:36 AM 8.6 °F 0.1 °F 6.8 °F 92% 29.60 in 10.0 mi NNE 4.6 mph - N/A   Clear
8:56 AM 8.6 °F 0.1 °F 6.8 °F 92% 29.60 in 10.0 mi NNE 4.6 mph - N/A   Clear
9:16 AM 10.4 °F 0.8 °F 8.6 °F 92% 29.60 in 10.0 mi NNE 5.8 mph - N/A   Clear
9:36 AM 10.4 °F 2.2 °F 8.6 °F 92% 29.61 in 10.0 mi NNE 4.6 mph - N/A   Clear
9:56 AM 10.4 °F 4.0 °F 8.6 °F 92% 29.61 in 10.0 mi NNE 3.5 mph - N/A   Clear
10:16 AM 12.2 °F - 10.4 °F 92% 29.61 in 10.0 mi Calm Calm - N/A   Clear
10:36 AM 12.2 °F - 10.4 °F 92% 29.61 in 10.0 mi Calm Calm - N/A   Clear
10:56 AM 12.2 °F - 10.4 °F 92% 29.62 in 10.0 mi Calm Calm - N/A   Clear
11:16 AM 12.2 °F - 10.4 °F 92% 29.62 in 10.0 mi Calm Calm - N/A   Clear
11:36 AM 15.8 °F 10.2 °F 10.4 °F 79% 29.62 in 10.0 mi North 3.5 mph - N/A   Clear
11:56 AM 15.8 °F - 12.2 °F 86% 29.62 in 10.0 mi Calm Calm - N/A   Clear
12:16 PM 17.6 °F - 14.0 °F 86% 29.62 in 10.0 mi Calm Calm - N/A   Clear
12:36 PM 17.6 °F 10.7 °F 14.0 °F 86% 29.62 in 10.0 mi North 4.6 mph - N/A   Clear
12:56 PM 19.4 °F 12.8 °F 14.0 °F 80% 29.63 in 10.0 mi North 4.6 mph - N/A   Clear
1:16 PM 19.4 °F 12.8 °F 15.8 °F 86% 29.63 in 10.0 mi North 4.6 mph - N/A   Clear
1:36 PM 21.2 °F 14.9 °F 17.6 °F 86% 29.63 in 10.0 mi NNE 4.6 mph - N/A   Clear
1:56 PM 21.2 °F 14.9 °F 17.6 °F 86% 29.63 in 10.0 mi North 4.6 mph - N/A   Clear
2:16 PM 23.0 °F 15.8 °F 17.6 °F 80% 29.63 in 10.0 mi North 5.8 mph - N/A   Clear
2:36 PM 24.8 °F 17.9 °F 19.4 °F 80% 29.64 in 10.0 mi North 5.8 mph - N/A   Scattered Clouds
2:56 PM 24.8 °F 16.9 °F 17.6 °F 74% 29.64 in 10.0 mi North 6.9 mph - N/A   Overcast
3:16 PM 24.8 °F 17.9 °F 19.4 °F 80% 29.65 in 10.0 mi North 5.8 mph - N/A   Overcast
3:36 PM 24.8 °F 17.9 °F 21.2 °F 86% 29.65 in 10.0 mi NNE 5.8 mph - N/A   Overcast
3:56 PM 26.6 °F 19.1 °F 21.2 °F 80% 29.65 in 10.0 mi North 6.9 mph - N/A   Overcast
4:16 PM 26.6 °F 19.1 °F 21.2 °F 80% 29.65 in 10.0 mi NNE 6.9 mph - N/A   Overcast
4:36 PM 26.6 °F 20.0 °F 21.2 °F 80% 29.65 in 10.0 mi North 5.8 mph - N/A   Overcast
4:56 PM 26.6 °F 19.1 °F 21.2 °F 80% 29.65 in 10.0 mi North 6.9 mph - N/A   Overcast
5:16 PM 26.6 °F 19.1 °F 21.2 °F 80% 29.65 in 10.0 mi North 6.9 mph - N/A   Overcast
5:36 PM 26.6 °F 18.2 °F 23.0 °F 86% 29.65 in 10.0 mi North 8.1 mph - N/A   Overcast
5:56 PM 26.6 °F 20.0 °F 21.2 °F 80% 29.65 in 10.0 mi North 5.8 mph - N/A   Overcast
6:16 PM 26.6 °F 19.1 °F 21.2 °F 80% 29.66 in 10.0 mi North 6.9 mph - N/A   Scattered Clouds
6:36 PM 26.6 °F 19.1 °F 23.0 °F 86% 29.66 in 10.0 mi North 6.9 mph - N/A   Clear
6:56 PM 26.6 °F 19.1 °F 21.2 °F 80% 29.66 in 10.0 mi North 6.9 mph - N/A   Clear
7:16 PM 26.6 °F 19.1 °F 23.0 °F 86% 29.66 in 10.0 mi North 6.9 mph - N/A   Clear
7:36 PM 26.6 °F 20.0 °F 23.0 °F 86% 29.66 in 10.0 mi North 5.8 mph - N/A   Clear
7:56 PM 26.6 °F 19.1 °F 21.2 °F 80% 29.66 in 10.0 mi North 6.9 mph - N/A   Partly Cloudy
8:16 PM 26.6 °F 19.1 °F 21.2 °F 80% 29.67 in 10.0 mi North 6.9 mph - N/A   Mostly Cloudy
8:36 PM 24.8 °F 16.1 °F 21.2 °F 86% 29.66 in 10.0 mi North 8.1 mph - N/A   Overcast
8:56 PM 24.8 °F 16.1 °F 21.2 °F 86% 29.67 in 10.0 mi North 8.1 mph - N/A   Overcast
9:16 PM 24.8 °F 16.1 °F 21.2 °F 86% 29.67 in 10.0 mi North 8.1 mph - N/A   Overcast
9:36 PM 24.8 °F 16.1 °F 21.2 °F 86% 29.67 in 10.0 mi North 8.1 mph - N/A   Overcast
9:56 PM 24.8 °F 16.1 °F 21.2 °F 86% 29.67 in 10.0 mi North 8.1 mph - N/A   Overcast
10:16 PM 24.8 °F 16.9 °F 21.2 °F 86% 29.68 in 10.0 mi North 6.9 mph - N/A   Overcast
10:36 PM 24.8 °F 16.9 °F 21.2 °F 86% 29.68 in 10.0 mi North 6.9 mph - N/A   Overcast
10:56 PM 23.0 °F 14.7 °F 19.4 °F 86% 29.68 in 10.0 mi North 6.9 mph - N/A   Overcast
11:16 PM 21.2 °F 13.6 °F 19.4 °F 93% 29.69 in 10.0 mi North 5.8 mph - N/A   Mostly Cloudy
11:36 PM 21.2 °F 13.6 °F 19.4 °F 93% 29.69 in 10.0 mi NNW 5.8 mph - N/A   Mostly Cloudy
11:56 PM 21.2 °F 14.9 °F 19.4 °F 93% 29.69 in 10.0 mi North 4.6 mph - N/A   Overcast